Time;durP1;ratioP1;P1;durP2;ratioP2;P2;SDS_P1;SDS_P2;PMS_P1;PMS_P2;Temp;Humidity;BMP_temperature;BMP_pressure;BME280_temperature;BME280_humidity;BME280_pressure;Samples;Min_cycle;Max_cycle;Signal;HPM_P1;HPM_P2
2022/10/03 00:01:51;;;;;;;1.37;1.27;;;;;;;22.70;56.39;98112.72;5049801;28;20202;-32
2022/10/03 00:04:29;;;;;;;1.10;1.10;;;;;;;22.72;56.43;98107.66;5047430;28;20300;-31
2022/10/03 00:07:06;;;;;;;1.20;1.10;;;;;;;22.73;56.62;98110.25;5054260;28;20579;-31
2022/10/03 00:10:15;;;;;;;1.30;1.20;;;;;;;22.73;56.48;98117.94;5046579;28;20201;-31
2022/10/03 00:13:06;;;;;;;1.33;1.23;;;;;;;22.67;56.45;98109.16;5050420;28;20572;-31
2022/10/03 00:15:54;;;;;;;1.03;1.03;;;;;;;22.72;56.41;98118.78;5060750;28;20467;-31
2022/10/03 00:18:46;;;;;;;1.20;1.10;;;;;;;22.73;56.47;98125.63;5046652;28;20197;-31
2022/10/03 00:21:31;;;;;;;0.97;0.97;;;;;;;22.74;56.41;98123.94;5039709;28;20194;-31
2022/10/03 00:24:55;;;;;;;1.13;1.13;;;;;;;22.74;56.33;98121.41;5053127;28;20221;-31
2022/10/03 00:27:24;;;;;;;1.30;1.20;;;;;;;22.73;56.47;98124.75;5031581;28;20226;-31
2022/10/03 00:30:01;;;;;;;1.00;1.00;;;;;;;22.72;56.31;98131.59;5032065;28;20672;-31
2022/10/03 00:32:42;;;;;;;2.27;1.40;;;;;;;22.73;56.46;98138.44;5033048;28;20200;-31
2022/10/03 00:35:30;;;;;;;1.47;1.37;;;;;;;22.73;56.44;98135.88;5041632;28;20596;-31
2022/10/03 00:38:05;;;;;;;1.40;1.30;;;;;;;22.73;56.66;98137.56;5067813;28;20193;-31
2022/10/03 00:41:01;;;;;;;1.20;1.13;;;;;;;22.73;56.41;98142.69;5054103;28;20291;-31
2022/10/03 00:43:28;;;;;;;1.43;1.10;;;;;;;22.73;56.47;98140.13;5065601;28;20253;-31
2022/10/03 00:46:10;;;;;;;1.40;1.30;;;;;;;22.71;56.57;98139.22;5054040;28;20201;-31
2022/10/03 00:49:22;;;;;;;1.10;1.10;;;;;;;22.72;56.42;98146.09;5052816;28;20730;-31
2022/10/03 00:52:10;;;;;;;1.17;1.13;;;;;;;22.72;56.56;98144.41;5050321;28;20454;-31
2022/10/03 00:54:39;;;;;;;1.17;1.17;;;;;;;22.73;56.50;98158.06;5053535;28;20231;-31
2022/10/03 00:57:18;;;;;;;1.33;1.23;;;;;;;22.72;56.46;98149.53;5052593;28;20556;-31
2022/10/03 01:00:05;;;;;;;1.23;1.20;;;;;;;22.72;56.51;98158.91;5053158;28;20652;-31
2022/10/03 01:02:38;;;;;;;1.20;1.20;;;;;;;22.72;56.51;98156.34;5044238;28;20584;-31
2022/10/03 01:05:15;;;;;;;1.27;1.20;;;;;;;22.72;56.53;98159.78;5052737;28;20223;-31
2022/10/03 01:07:49;;;;;;;1.40;1.30;;;;;;;22.72;56.56;98159.78;5060610;28;20225;-31
2022/10/03 01:10:25;;;;;;;1.03;1.03;;;;;;;22.72;56.33;98154.66;5046316;28;20462;-31
2022/10/03 01:13:17;;;;;;;1.40;1.30;;;;;;;22.72;56.46;98153.78;5046717;28;20200;-31
2022/10/03 01:16:04;;;;;;;1.17;1.07;;;;;;;22.72;56.41;98156.34;5050425;28;20228;-31
2022/10/03 01:18:41;;;;;;;1.30;1.20;;;;;;;22.70;56.35;98151.16;5051395;28;20189;-31
2022/10/03 01:21:21;;;;;;;1.23;1.20;;;;;;;22.65;56.43;98137.31;5052883;28;20201;-31
2022/10/03 01:24:14;;;;;;;1.30;1.20;;;;;;;22.72;56.47;98157.22;5051570;28;20243;-31
2022/10/03 01:26:56;;;;;;;1.43;1.23;;;;;;;22.72;56.49;98159.78;5052181;28;20205;-31
2022/10/03 01:32:26;;;;;;;1.30;1.20;;;;;;;22.73;56.55;98160.63;5046739;28;20660;-31
2022/10/03 01:35:06;;;;;;;1.10;1.10;;;;;;;22.72;56.55;98162.34;5050082;28;20225;-31
2022/10/03 01:37:42;;;;;;;1.20;1.10;;;;;;;22.72;56.64;98170.03;5053470;28;20663;-32
2022/10/03 01:40:28;;;;;;;1.20;1.20;;;;;;;22.72;56.41;98172.59;5052267;28;20196;-31
2022/10/03 01:43:03;;;;;;;1.10;1.10;;;;;;;22.68;56.50;98175.84;5051678;28;20197;-31
2022/10/03 01:46:00;;;;;;;1.13;1.13;;;;;;;22.72;56.51;98171.72;5047540;28;20224;-31
2022/10/03 01:48:47;;;;;;;1.20;1.20;;;;;;;22.58;56.38;98158.41;5049489;28;20237;-31
2022/10/03 01:51:18;;;;;;;1.37;1.27;;;;;;;22.72;56.45;98179.41;5043181;28;20687;-31
2022/10/03 01:53:52;;;;;;;1.10;1.10;;;;;;;22.71;56.64;98177.66;5035891;28;20236;-31
2022/10/03 01:56:40;;;;;;;1.30;1.20;;;;;;;22.71;56.43;98186.19;5051045;28;20197;-31
2022/10/03 01:59:17;;;;;;;1.20;1.10;;;;;;;22.72;56.50;98184.53;5050980;28;20192;-31
2022/10/03 02:02:06;;;;;;;1.13;1.13;;;;;;;22.71;56.55;98193.88;5047399;28;20204;-31
2022/10/03 02:05:02;;;;;;;1.00;1.00;;;;;;;22.72;56.41;98192.22;5052206;28;20735;-31
2022/10/03 02:07:34;;;;;;;1.20;1.10;;;;;;;22.71;56.43;98190.47;5051260;28;20652;-31
2022/10/03 02:10:21;;;;;;;1.20;1.10;;;;;;;22.71;56.51;98186.19;5048586;28;20208;-31
2022/10/03 02:13:06;;;;;;;1.10;1.10;;;;;;;22.71;56.58;98182.78;5050700;28;20197;-31
2022/10/03 02:16:06;;;;;;;1.33;1.23;;;;;;;22.71;56.51;98185.34;5051917;28;20227;-31
2022/10/03 02:18:57;;;;;;;1.00;1.00;;;;;;;22.71;56.49;98193.88;5045157;28;20568;-31
2022/10/03 02:21:28;;;;;;;1.00;1.00;;;;;;;22.65;56.55;98173.19;5045940;28;20208;-31
2022/10/03 02:24:13;;;;;;;1.60;1.20;;;;;;;22.71;56.46;98175.09;5044105;28;20225;-31
2022/10/03 02:27:00;;;;;;;1.00;1.00;;;;;;;22.72;56.57;98176.84;5048207;28;20201;-31
2022/10/03 02:29:50;;;;;;;1.33;1.23;;;;;;;22.71;56.35;98180.22;5051391;28;20607;-31
2022/10/03 02:32:45;;;;;;;1.30;1.20;;;;;;;22.71;56.39;98183.63;5051992;28;20200;-31
2022/10/03 02:35:30;;;;;;;1.20;1.10;;;;;;;22.66;56.42;98168.94;5047761;28;20229;-31
2022/10/03 02:38:09;;;;;;;1.10;1.10;;;;;;;22.72;56.45;98184.53;5050765;28;20204;-31
2022/10/03 02:40:46;;;;;;;1.20;1.10;;;;;;;22.71;56.49;98193.03;5051933;28;20386;-31
2022/10/03 02:43:43;;;;;;;1.00;1.00;;;;;;;22.72;56.46;98202.47;5045125;28;20545;-31
2022/10/03 02:46:37;;;;;;;1.40;1.30;;;;;;;22.71;56.55;98201.56;5051591;28;20203;-31
2022/10/03 02:49:10;;;;;;;1.30;1.20;;;;;;;22.71;56.47;98208.41;5049787;28;20225;-31
2022/10/03 02:52:02;;;;;;;1.40;1.30;;;;;;;22.71;56.48;98199.00;5050254;28;20668;-31
2022/10/03 02:54:55;;;;;;;1.20;1.10;;;;;;;22.71;56.35;98203.28;5050178;28;20671;-31
2022/10/03 02:57:41;;;;;;;1.03;1.03;;;;;;;22.70;56.76;98207.53;5044406;28;20193;-31
2022/10/03 03:00:19;;;;;;;1.00;1.00;;;;;;;22.63;56.41;98197.88;5049192;28;20200;-31
2022/10/03 03:03:10;;;;;;;1.20;1.10;;;;;;;22.71;56.47;98218.66;5050059;28;20268;-31
2022/10/03 03:05:49;;;;;;;1.30;1.20;;;;;;;22.70;56.46;98217.78;5047284;28;20632;-31
2022/10/03 03:08:43;;;;;;;1.30;1.20;;;;;;;22.70;56.46;98222.03;5051019;28;20231;-31
2022/10/03 03:11:31;;;;;;;1.30;1.20;;;;;;;22.71;56.48;98224.63;5043731;28;20197;-31
2022/10/03 03:14:15;;;;;;;1.03;1.03;;;;;;;22.71;56.31;98231.47;5050770;28;20220;-31
2022/10/03 03:16:48;;;;;;;2.00;1.00;;;;;;;22.70;56.41;98220.34;5049939;28;20204;-31
2022/10/03 03:19:17;;;;;;;1.10;1.10;;;;;;;22.71;56.43;98224.63;5045035;28;20197;-31
2022/10/03 03:22:16;;;;;;;1.30;1.20;;;;;;;22.71;56.49;98226.34;5046311;28;20219;-31
2022/10/03 03:25:05;;;;;;;1.20;1.20;;;;;;;22.71;56.49;98226.34;5064035;23;20255;-21
2022/10/03 03:27:45;;;;;;;1.10;1.10;;;;;;;22.34;56.41;98172.00;5046765;28;20203;-21
2022/10/03 03:30:17;;;;;;;1.47;1.37;;;;;;;22.71;56.51;98234.03;5037693;28;20454;-21
2022/10/03 03:32:46;;;;;;;1.40;1.30;;;;;;;22.69;56.40;98238.22;5039254;28;20197;-21
2022/10/03 03:35:32;;;;;;;1.10;1.10;;;;;;;22.51;56.52;98204.25;5043156;28;20240;-21
2022/10/03 03:38:05;;;;;;;1.10;1.10;;;;;;;22.72;56.43;98281.91;5048001;28;20196;-21
2022/10/03 03:41:04;;;;;;;1.17;1.17;;;;;;;22.70;56.35;98258.78;5049955;28;20197;-21
2022/10/03 03:44:04;;;;;;;1.10;1.10;;;;;;;22.71;56.45;98259.66;5022536;28;20656;-21
2022/10/03 03:46:49;;;;;;;1.10;1.10;;;;;;;22.71;56.43;98260.50;5051604;28;20196;-21
2022/10/03 03:50:00;;;;;;;1.20;1.20;;;;;;;22.71;56.52;98265.63;5050177;28;20227;-21
2022/10/03 03:52:48;;;;;;;1.30;1.20;;;;;;;22.71;56.37;98269.91;4968174;28;20258;-21
2022/10/03 03:55:30;;;;;;;1.10;1.10;;;;;;;22.70;56.46;98271.59;5038949;28;20221;-21
2022/10/03 03:58:12;;;;;;;1.40;1.30;;;;;;;22.71;56.39;98267.34;5054199;28;20205;-21
2022/10/03 04:01:02;;;;;;;1.40;1.30;;;;;;;22.69;56.40;98271.53;5047056;28;20473;-21
2022/10/03 04:03:47;;;;;;;1.20;1.20;;;;;;;22.70;56.43;98269.03;5050036;28;20200;-21
2022/10/03 04:06:46;;;;;;;1.30;1.20;;;;;;;22.35;56.51;98253.16;5041366;28;20204;-21
2022/10/03 04:09:47;;;;;;;1.23;1.17;;;;;;;22.67;56.50;98262.91;5034114;28;20213;-21
2022/10/03 04:12:30;;;;;;;1.20;1.20;;;;;;;22.71;56.41;98269.91;5048635;28;20215;-21
2022/10/03 04:15:12;;;;;;;1.13;1.13;;;;;;;22.70;56.42;98260.47;5048901;28;20479;-21
2022/10/03 04:21:57;;;;;;;1.50;1.40;;;;;;;22.71;56.59;98280.16;5001831;28;20202;-21
2022/10/03 04:24:45;;;;;;;1.37;1.27;;;;;;;22.70;56.55;98258.78;4992916;28;20228;-21
2022/10/03 04:27:25;;;;;;;1.83;1.50;;;;;;;22.58;56.47;98245.53;5048360;28;20197;-20
2022/10/03 04:30:00;;;;;;;1.10;1.10;;;;;;;22.69;56.48;98263.84;5048351;28;20221;-21
2022/10/03 04:32:43;;;;;;;1.10;1.10;;;;;;;22.68;56.49;98260.41;5050142;28;20200;-21
2022/10/03 04:35:33;;;;;;;1.13;1.13;;;;;;;22.69;56.50;98263.84;5036813;28;20236;-21
2022/10/03 04:38:20;;;;;;;1.50;1.30;;;;;;;22.70;56.41;98258.78;5051957;28;20668;-21
2022/10/03 04:41:05;;;;;;;1.40;1.30;;;;;;;22.45;56.40;98216.81;5052821;28;20211;-21
2022/10/03 04:43:40;;;;;;;1.10;1.10;;;;;;;22.71;56.41;98264.78;5052160;28;20208;-21
2022/10/03 04:46:21;;;;;;;1.17;1.13;;;;;;;22.71;56.48;98264.78;5052704;28;20212;-21
2022/10/03 04:49:21;;;;;;;1.07;1.07;;;;;;;22.70;56.34;98261.34;5056462;28;20228;-20
2022/10/03 04:51:53;;;;;;;1.13;1.13;;;;;;;22.71;56.33;98257.94;5036573;28;20211;-21
2022/10/03 04:54:47;;;;;;;1.30;1.20;;;;;;;22.71;56.50;98249.41;5061021;28;20247;-21
2022/10/03 04:57:35;;;;;;;1.10;1.10;;;;;;;22.71;56.35;98254.53;5044561;28;20229;-21
2022/10/03 05:00:22;;;;;;;1.10;1.10;;;;;;;22.70;56.39;98256.22;5054819;28;20219;-21
2022/10/03 05:03:10;;;;;;;1.30;1.20;;;;;;;22.71;56.45;98257.09;5051739;28;20204;-21
2022/10/03 05:05:58;;;;;;;1.10;1.10;;;;;;;22.71;56.38;98262.22;5048892;28;20228;-21
2022/10/03 05:08:41;;;;;;;1.00;1.00;;;;;;;22.61;56.38;98242.19;5055940;28;20201;-21
2022/10/03 05:11:17;;;;;;;1.40;1.30;;;;;;;22.71;56.33;98264.78;5043845;28;20207;-21
2022/10/03 05:14:09;;;;;;;1.10;1.10;;;;;;;22.71;56.39;98257.94;5052223;28;20205;-21
2022/10/03 05:16:42;;;;;;;1.10;1.10;;;;;;;22.71;56.33;98264.78;5052414;28;20683;-21
2022/10/03 05:19:18;;;;;;;1.10;1.10;;;;;;;22.61;56.41;98249.88;5045014;28;20195;-20
2022/10/03 05:22:12;;;;;;;1.20;1.20;;;;;;;22.62;56.43;98249.06;5057582;28;20664;-21
2022/10/03 05:24:55;;;;;;;1.27;1.17;;;;;;;22.37;56.44;98215.66;5032432;28;20232;-20
2022/10/03 05:27:39;;;;;;;1.30;1.20;;;;;;;22.70;56.43;98276.72;5038370;28;20207;-21
2022/10/03 05:30:15;;;;;;;1.40;1.30;;;;;;;22.71;56.37;98282.72;5052420;28;20598;-21
2022/10/03 05:32:45;;;;;;;1.40;1.30;;;;;;;22.71;56.35;98283.56;5047694;28;20205;-21
2022/10/03 05:35:17;;;;;;;1.20;1.10;;;;;;;22.71;56.23;98291.25;5044799;28;20223;-21
2022/10/03 05:38:03;;;;;;;1.33;1.20;;;;;;;22.71;56.35;98291.25;5051830;28;20209;-21
2022/10/03 05:40:33;;;;;;;1.10;1.10;;;;;;;22.72;56.28;98298.16;5052205;28;20204;-21
2022/10/03 05:43:01;;;;;;;1.40;1.30;;;;;;;22.73;56.24;98296.44;5034474;28;20660;-21
2022/10/03 05:45:40;;;;;;;1.00;1.00;;;;;;;22.73;56.31;98301.56;5041168;28;20228;-21
2022/10/03 05:48:28;;;;;;;1.30;1.20;;;;;;;22.73;56.30;98297.31;5051393;28;20201;-21
2022/10/03 05:51:11;;;;;;;1.27;1.20;;;;;;;22.74;56.41;98300.78;5051799;28;20208;-21
2022/10/03 05:54:02;;;;;;;1.23;1.20;;;;;;;22.73;56.39;98301.56;5047945;28;20201;-21
2022/10/03 05:57:00;;;;;;;1.40;1.30;;;;;;;22.73;56.22;98312.69;5050847;28;20205;-21
2022/10/03 05:59:38;;;;;;;1.47;1.33;;;;;;;22.74;56.29;98316.16;5046444;28;20207;-21
2022/10/03 06:02:23;;;;;;;1.33;1.23;;;;;;;22.74;56.20;98316.16;5051907;28;20200;-21
2022/10/03 06:05:11;;;;;;;1.23;1.20;;;;;;;22.74;56.35;98317.00;5050871;28;20225;-21
2022/10/03 06:08:13;;;;;;;1.40;1.30;;;;;;;22.75;56.28;98323.00;5051766;28;20196;-21
2022/10/03 06:11:21;;;;;;;1.30;1.20;;;;;;;22.74;56.20;98326.41;5025867;28;20236;-21
2022/10/03 06:14:23;;;;;;;1.20;1.20;;;;;;;22.74;56.20;98326.41;5012291;28;20193;-21
2022/10/03 06:17:08;;;;;;;1.23;1.23;;;;;;;22.73;56.24;98327.19;5010139;28;20212;-21
2022/10/03 06:20:21;;;;;;;1.30;1.20;;;;;;;22.73;56.30;98325.50;5051238;28;20200;-21
2022/10/03 06:23:06;;;;;;;1.07;1.07;;;;;;;22.73;56.27;98324.63;5035601;28;20572;-21
2022/10/03 06:25:54;;;;;;;1.40;1.30;;;;;;;22.72;56.26;98325.47;5050574;28;20232;-21
2022/10/03 06:28:27;;;;;;;1.30;1.20;;;;;;;22.74;56.22;98328.97;5051822;28;20204;-21
2022/10/03 06:31:26;;;;;;;1.50;1.40;;;;;;;22.73;56.31;98332.31;5051159;28;20204;-21
2022/10/03 06:34:23;;;;;;;1.40;1.30;;;;;;;22.74;56.29;98346.91;5030724;28;20287;-21
2022/10/03 06:37:19;;;;;;;1.30;1.20;;;;;;;22.73;56.23;98355.38;5049716;28;20201;-21
2022/10/03 06:40:00;;;;;;;1.50;1.40;;;;;;;22.73;56.22;98346.03;5047213;28;20201;-21
2022/10/03 06:42:51;;;;;;;1.20;1.20;;;;;;;22.73;56.30;98371.66;5050947;28;20263;-21
2022/10/03 06:45:48;;;;;;;1.47;1.33;;;;;;;22.73;56.27;98353.72;5050973;28;20225;-21
2022/10/03 06:48:49;;;;;;;1.27;1.17;;;;;;;22.73;56.28;98366.53;5025573;28;20201;-21
2022/10/03 06:51:30;;;;;;;1.50;1.40;;;;;;;22.74;56.27;98363.13;5046508;28;20200;-21
2022/10/03 06:54:06;;;;;;;1.40;1.30;;;;;;;22.74;56.32;98365.69;5050802;28;20200;-21
2022/10/03 06:56:53;;;;;;;1.07;1.07;;;;;;;22.76;56.36;98365.75;5049998;28;20624;-21
2022/10/03 06:59:38;;;;;;;1.37;1.20;;;;;;;22.73;56.32;98360.50;5058439;28;20205;-21
2022/10/03 07:02:23;;;;;;;1.33;1.23;;;;;;;22.75;56.25;98369.13;5049302;28;20444;-21
2022/10/03 07:05:24;;;;;;;1.10;1.10;;;;;;;22.74;56.25;98370.81;5049961;28;20748;-21
2022/10/03 07:08:10;;;;;;;1.20;1.20;;;;;;;22.72;56.25;98361.34;5050682;28;20562;-21
2022/10/03 07:11:00;;;;;;;1.20;1.20;;;;;;;22.75;55.94;98369.13;5046821;28;20228;-21
2022/10/03 07:13:36;;;;;;;1.10;1.10;;;;;;;22.74;56.28;98365.69;5033740;28;20664;-21
2022/10/03 07:16:10;;;;;;;1.40;1.30;;;;;;;22.74;56.03;98375.09;5050335;28;20243;-21
2022/10/03 07:19:04;;;;;;;1.30;1.20;;;;;;;22.74;56.23;98370.81;5062785;28;20687;-21
2022/10/03 07:21:46;;;;;;;1.13;1.10;;;;;;;22.74;56.21;98372.53;5036379;28;20395;-21
2022/10/03 07:24:39;;;;;;;1.40;1.30;;;;;;;22.74;56.18;98373.38;5042924;28;20590;-21
2022/10/03 07:27:22;;;;;;;1.20;1.20;;;;;;;22.65;56.23;98356.81;5050321;28;20201;-21
2022/10/03 07:30:14;;;;;;;1.37;1.27;;;;;;;22.73;56.16;98369.09;5049194;28;20227;-21
2022/10/03 07:33:04;;;;;;;1.40;1.30;;;;;;;22.73;56.19;98374.22;5050888;28;20209;-20
2022/10/03 07:38:58;;;;;;;1.40;1.30;;;;;;;22.74;56.28;98375.09;5050490;28;20571;-21
2022/10/03 07:41:46;;;;;;;1.73;1.20;;;;;;;22.74;56.35;98381.06;5044403;28;20207;-21
2022/10/03 07:44:43;;;;;;;1.40;1.30;;;;;;;22.74;56.13;98381.06;5050352;28;20223;-21
2022/10/03 07:47:32;;;;;;;1.30;1.20;;;;;;;22.74;56.31;98380.22;5050547;28;20197;-21
2022/10/03 07:50:53;;;;;;;1.57;1.40;;;;;;;22.74;56.25;98385.34;5049909;28;20239;-21
2022/10/03 07:53:47;;;;;;;1.40;1.30;;;;;;;22.75;56.21;98397.34;4971542;28;20294;-21
2022/10/03 07:56:32;;;;;;;1.33;1.23;;;;;;;22.74;56.30;98396.44;5057845;28;20197;-21
2022/10/03 07:59:26;;;;;;;1.50;1.40;;;;;;;22.74;56.25;98400.72;5049586;28;20589;-21
2022/10/03 08:02:04;;;;;;;1.03;1.03;;;;;;;22.75;56.18;98407.59;5050429;28;20200;-21
2022/10/03 08:05:07;;;;;;;1.40;1.30;;;;;;;22.74;56.25;98398.16;5049893;28;20232;-21
2022/10/03 08:07:55;;;;;;;1.23;1.23;;;;;;;22.75;56.55;98402.47;5047874;28;20287;-21
2022/10/03 08:10:41;;;;;;;2.07;1.30;;;;;;;22.75;56.19;98400.78;5053551;28;20229;-21
2022/10/03 08:13:35;;;;;;;1.37;1.27;;;;;;;22.75;56.28;98410.16;5053954;28;20205;-21
2022/10/03 08:16:29;;;;;;;1.40;1.30;;;;;;;22.75;56.17;98412.72;5041947;28;20229;-21
2022/10/03 08:19:35;;;;;;;1.20;1.20;;;;;;;22.75;56.30;98415.28;5054010;28;20193;-21
2022/10/03 08:22:33;;;;;;;1.53;1.43;;;;;;;22.74;56.32;98421.22;5053533;28;20208;-21
2022/10/03 08:25:25;;;;;;;1.67;1.23;;;;;;;22.74;56.17;98422.06;5051746;28;20239;-21
2022/10/03 08:28:14;;;;;;;1.10;1.10;;;;;;;22.74;56.23;98416.09;5038185;28;20283;-21
2022/10/03 08:31:01;;;;;;;1.33;1.23;;;;;;;22.74;56.16;98418.66;5053536;28;20217;-21
2022/10/03 08:33:51;;;;;;;1.23;1.13;;;;;;;22.51;56.20;98375.88;5048604;28;20204;-21
2022/10/03 08:36:33;;;;;;;1.10;1.10;;;;;;;22.73;56.19;98417.78;5064492;28;20355;-20
2022/10/03 08:38:59;;;;;;;1.33;1.23;;;;;;;22.75;56.17;98425.53;5053042;28;20201;-21
2022/10/03 08:42:06;;;;;;;1.30;1.20;;;;;;;22.73;56.23;98417.78;5053449;28;20208;-21
2022/10/03 08:44:44;;;;;;;1.37;1.27;;;;;;;22.74;55.98;98419.50;5068387;28;20213;-21
2022/10/03 08:47:11;;;;;;;2.03;1.40;;;;;;;22.74;56.21;98421.22;5046325;28;20776;-21
2022/10/03 08:50:03;;;;;;;1.20;1.20;;;;;;;22.74;56.61;98428.91;5053565;28;20225;-21
2022/10/03 08:52:53;;;;;;;1.13;1.13;;;;;;;22.74;56.43;98426.34;5040925;28;20695;-21
2022/10/03 08:55:54;;;;;;;1.10;1.10;;;;;;;22.75;56.21;98421.28;5046502;28;20497;-22
2022/10/03 08:58:36;;;;;;;1.20;1.20;;;;;;;22.75;56.20;98415.28;5052519;28;20216;-21
2022/10/03 09:01:28;;;;;;;1.33;1.23;;;;;;;22.75;56.16;98417.84;5053269;28;20582;-21
2022/10/03 09:04:29;;;;;;;1.20;1.10;;;;;;;22.75;55.80;98421.28;5050072;28;20209;-21
2022/10/03 09:07:16;;;;;;;1.23;1.20;;;;;;;22.75;56.20;98422.97;5052765;28;20212;-21
2022/10/03 09:09:57;;;;;;;1.13;1.13;;;;;;;22.75;56.10;98422.97;5052353;28;20219;-21
2022/10/03 09:12:30;;;;;;;1.43;1.33;;;;;;;22.75;56.33;98417.84;5047442;28;20216;-21
2022/10/03 09:14:57;;;;;;;1.37;1.20;;;;;;;22.75;56.26;98417.84;5052403;28;20599;-21
2022/10/03 09:17:48;;;;;;;2.40;1.20;;;;;;;22.74;56.20;98418.66;5052877;28;20200;-21
2022/10/03 09:20:30;;;;;;;1.40;1.30;;;;;;;22.75;56.33;98420.41;5052075;28;20200;-21
2022/10/03 09:23:23;;;;;;;1.40;1.30;;;;;;;22.74;56.25;98422.06;5052821;28;20209;-21
2022/10/03 09:26:05;;;;;;;1.33;1.23;;;;;;;22.74;56.30;98422.06;5070511;23;20232;-31
2022/10/03 09:28:43;;;;;;;1.20;1.10;;;;;;;22.75;56.26;98425.53;5052768;28;20207;-31
2022/10/03 09:31:27;;;;;;;1.40;1.30;;;;;;;22.71;56.30;98414.28;5044621;28;20628;-31
2022/10/03 09:34:12;;;;;;;1.40;1.30;;;;;;;22.74;56.20;98427.19;5052483;28;20605;-31
2022/10/03 09:37:18;;;;;;;1.23;1.23;;;;;;;22.74;56.16;98426.34;5033391;28;20680;-31
2022/10/03 09:40:10;;;;;;;1.27;1.27;;;;;;;22.74;56.21;98423.78;5029768;28;20600;-31
2022/10/03 09:43:01;;;;;;;1.10;1.10;;;;;;;22.74;56.35;98422.06;5033037;28;20573;-31
2022/10/03 09:46:05;;;;;;;1.27;1.20;;;;;;;22.73;56.15;98424.56;5042750;28;20245;-31
2022/10/03 09:48:40;;;;;;;1.03;1.03;;;;;;;22.73;56.35;98425.47;5028397;28;20247;-31
2022/10/03 09:51:43;;;;;;;1.10;1.10;;;;;;;22.73;56.27;98422.91;5031262;28;20247;-31
2022/10/03 09:54:25;;;;;;;1.47;1.37;;;;;;;22.73;56.22;98420.34;5004071;28;20204;-31
2022/10/03 09:57:43;;;;;;;1.30;1.20;;;;;;;22.74;56.23;98423.78;5031168;28;20197;-31
2022/10/03 10:00:19;;;;;;;1.20;1.20;;;;;;;22.74;56.21;98427.19;5007401;28;20201;-31
2022/10/03 10:03:11;;;;;;;1.30;1.20;;;;;;;22.74;56.10;98426.34;5031232;28;20201;-31
2022/10/03 10:06:15;;;;;;;1.33;1.23;;;;;;;22.67;56.22;98417.53;5027556;28;20668;-31
2022/10/03 10:08:56;;;;;;;1.30;1.20;;;;;;;22.74;56.19;98432.31;4978788;28;20619;-31
2022/10/03 10:11:47;;;;;;;1.40;1.23;;;;;;;22.73;56.15;98435.72;5026238;28;20224;-31
2022/10/03 10:14:35;;;;;;;1.10;1.10;;;;;;;22.75;56.26;98433.22;5032390;28;20205;-32
2022/10/03 10:17:14;;;;;;;1.60;1.30;;;;;;;22.74;56.12;98424.63;5032319;28;20212;-31
2022/10/03 10:19:50;;;;;;;1.30;1.20;;;;;;;22.74;56.23;98426.34;5032686;28;20201;-31
2022/10/03 10:22:29;;;;;;;1.40;1.30;;;;;;;22.71;56.12;98421.97;5029282;28;20207;-31
2022/10/03 10:25:23;;;;;;;1.20;1.10;;;;;;;22.75;56.25;98428.09;5030781;28;20236;-31
2022/10/03 10:27:54;;;;;;;1.20;1.10;;;;;;;22.73;56.38;98417.78;5032334;28;20244;-31
2022/10/03 10:30:48;;;;;;;1.27;1.17;;;;;;;22.74;56.29;98418.66;5031666;28;20224;-31
2022/10/03 10:33:23;;;;;;;1.27;1.20;;;;;;;22.74;56.30;98416.09;5031473;28;20209;-31
2022/10/03 10:36:11;;;;;;;1.40;1.30;;;;;;;22.74;56.22;98410.97;5032282;28;20235;-31
2022/10/03 10:38:58;;;;;;;1.20;1.17;;;;;;;22.73;56.22;98411.75;5032330;28;20205;-31
2022/10/03 10:41:43;;;;;;;1.03;1.03;;;;;;;22.73;56.21;98410.09;5026519;28;20190;-31
2022/10/03 10:44:31;;;;;;;1.17;1.17;;;;;;;22.74;56.28;98416.09;5031629;28;20676;-31
2022/10/03 10:47:12;;;;;;;1.30;1.20;;;;;;;22.74;56.37;98418.66;5032058;28;20208;-31
2022/10/03 10:50:01;;;;;;;1.17;1.07;;;;;;;22.73;56.15;98407.53;5031973;28;20647;-31
2022/10/03 10:53:04;;;;;;;1.30;1.20;;;;;;;22.74;56.19;98413.53;5030820;28;20209;-31
2022/10/03 10:56:08;;;;;;;1.10;1.10;;;;;;;22.74;56.27;98410.97;5027166;28;20741;-31
2022/10/03 10:59:02;;;;;;;1.37;1.27;;;;;;;22.74;56.29;98403.28;5031262;28;20193;-31
2022/10/03 11:01:48;;;;;;;1.30;1.20;;;;;;;22.74;56.25;98413.53;5031737;28;20573;-31
2022/10/03 11:04:31;;;;;;;1.20;1.10;;;;;;;22.73;56.23;98419.44;5024494;28;20648;-31
2022/10/03 11:07:03;;;;;;;1.13;1.10;;;;;;;22.74;56.23;98416.09;5030511;28;20655;-31
2022/10/03 11:09:59;;;;;;;1.10;1.10;;;;;;;22.74;56.25;98416.09;5030832;28;20201;-31
2022/10/03 11:12:37;;;;;;;1.33;1.23;;;;;;;22.17;56.25;98316.47;5030460;28;20201;-31
2022/10/03 11:15:23;;;;;;;1.30;1.20;;;;;;;22.75;56.21;98407.59;5031182;28;20221;-31
2022/10/03 11:18:27;;;;;;;1.33;1.23;;;;;;;22.74;56.15;98411.81;5031772;28;20219;-31
2022/10/03 11:21:15;;;;;;;1.33;1.23;;;;;;;22.76;56.12;98424.69;5031408;28;20204;-31
2022/10/03 11:24:19;;;;;;;1.03;1.03;;;;;;;22.75;56.26;98425.53;5031844;28;20588;-31
2022/10/03 11:27:23;;;;;;;1.10;1.10;;;;;;;22.75;56.17;98428.97;5028162;28;20197;-31
2022/10/03 11:29:50;;;;;;;1.30;1.20;;;;;;;22.74;56.26;98424.63;5031882;28;20208;-31
2022/10/03 11:32:29;;;;;;;1.40;1.30;;;;;;;22.74;56.25;98416.09;5031224;28;20686;-31
2022/10/03 11:35:33;;;;;;;1.30;1.20;;;;;;;22.74;56.21;98416.94;5031866;28;20739;-31
2022/10/03 11:38:11;;;;;;;1.13;1.00;;;;;;;22.74;56.13;98414.38;5031024;28;20697;-31
2022/10/03 11:41:17;;;;;;;1.30;1.20;;;;;;;22.75;56.21;98412.72;5031716;28;20209;-31
2022/10/03 11:44:29;;;;;;;1.30;1.20;;;;;;;22.74;56.25;98413.53;5027576;28;20201;-31
2022/10/03 11:47:25;;;;;;;1.30;1.20;;;;;;;22.74;56.31;98413.53;5032858;28;20201;-31
2022/10/03 11:50:10;;;;;;;1.10;1.10;;;;;;;22.74;56.24;98418.66;5032806;28;20208;-31
2022/10/03 11:52:39;;;;;;;1.37;1.27;;;;;;;22.74;56.25;98416.94;5035301;28;20193;-31
2022/10/03 11:55:19;;;;;;;1.40;1.30;;;;;;;22.74;56.21;98410.97;5035448;28;20394;-31
2022/10/03 11:57:55;;;;;;;1.10;1.10;;;;;;;22.73;56.19;98410.09;5035706;28;20201;-31
2022/10/03 12:00:22;;;;;;;1.17;1.10;;;;;;;22.73;56.23;98410.09;5034680;28;20190;-31
2022/10/03 12:02:55;;;;;;;1.30;1.20;;;;;;;22.74;56.17;98406.69;5017318;28;20206;-31
2022/10/03 12:09:19;;;;;;;1.27;1.20;;;;;;;22.74;56.23;98395.59;5032000;28;20198;-31
2022/10/03 12:12:27;;;;;;;1.23;1.20;;;;;;;22.74;56.23;98396.44;5032101;28;20254;-31
2022/10/03 12:14:55;;;;;;;1.20;1.10;;;;;;;22.75;56.28;98389.63;5034878;28;20228;-31
2022/10/03 12:17:34;;;;;;;1.30;1.20;;;;;;;22.67;56.21;98371.41;5050007;28;20201;-31
2022/10/03 12:20:23;;;;;;;1.33;1.23;;;;;;;22.72;56.22;98380.16;5028675;28;20206;-31
2022/10/03 12:23:08;;;;;;;1.10;1.10;;;;;;;22.68;56.24;98368.03;5047791;28;20201;-31
2022/10/03 12:25:35;;;;;;;1.07;1.07;;;;;;;22.75;56.21;98384.53;5033197;28;20235;-31
2022/10/03 12:28:16;;;;;;;1.00;1.00;;;;;;;22.75;56.14;98389.63;5039196;28;20525;-31
2022/10/03 12:30:48;;;;;;;1.30;1.20;;;;;;;22.74;56.28;98375.94;5034615;28;20218;-31
2022/10/03 12:33:50;;;;;;;1.13;1.10;;;;;;;22.75;56.18;98377.72;5030870;28;20682;-31
2022/10/03 12:36:42;;;;;;;1.27;1.10;;;;;;;22.63;56.09;98355.88;5027962;28;20224;-31
2022/10/03 12:39:13;;;;;;;1.30;1.20;;;;;;;22.75;56.22;98382.84;5030477;28;20198;-31
2022/10/03 12:41:54;;;;;;;1.20;1.20;;;;;;;22.75;56.25;98376.84;5034445;28;20228;-31
2022/10/03 12:44:26;;;;;;;1.20;1.10;;;;;;;22.75;56.23;98389.63;5032077;28;20209;-31
2022/10/03 12:47:10;;;;;;;1.30;1.20;;;;;;;22.69;56.08;98371.47;5034366;28;20208;-31
2022/10/03 12:49:50;;;;;;;1.20;1.20;;;;;;;22.73;56.21;98374.22;5033083;28;20202;-31
2022/10/03 12:52:45;;;;;;;1.20;1.10;;;;;;;22.72;56.20;98376.72;5027542;28;20229;-31
2022/10/03 12:55:25;;;;;;;1.33;1.20;;;;;;;22.66;56.19;98361.09;5033035;28;20722;-31
2022/10/03 12:57:52;;;;;;;1.03;1.03;;;;;;;22.74;56.22;98375.94;5017125;28;20205;-31
2022/10/03 13:00:35;;;;;;;1.07;1.00;;;;;;;22.73;56.53;98379.34;5033781;28;20194;-31
2022/10/03 13:03:29;;;;;;;1.30;1.20;;;;;;;22.74;56.39;98377.66;5019101;28;20202;-31
2022/10/03 13:06:15;;;;;;;1.10;1.10;;;;;;;22.74;56.22;98375.09;5033182;28;20244;-31
2022/10/03 13:09:22;;;;;;;1.30;1.20;;;;;;;22.73;56.28;98371.66;5032477;28;20585;-31
2022/10/03 13:11:57;;;;;;;1.30;1.20;;;;;;;22.73;56.21;98366.53;5031049;28;20232;-31
2022/10/03 13:14:51;;;;;;;1.10;1.10;;;;;;;22.74;56.17;98373.38;5031989;28;20201;-31
2022/10/03 13:17:28;;;;;;;1.00;1.00;;;;;;;22.74;56.30;98368.25;5032900;28;20200;-31